Terminal Aerodrome Forecast
Issued by NWS Flagstaff, AZ

Home | Current Version | Previous Version | Text Only | Print | Product List | Glossary On
Versions: 1 2 3 4 5 6 7 8 9 10 11 12 13
000
FTUS45 KFGZ 051724
TAFINW
TAF
KINW 051724Z 0518/0618 18020G30KT P6SM SCT250
      TEMPO 0520/0524 19025G35KT 3SM BLDU
     FM060300 17015KT P6SM SCT250
     FM061400 18020G30KT P6SM BKN250=

USA.gov is the U.S. government's official web portal to all federal, state and local government web resources and services.